sensor_id;sensor_type;location;lat;lon;timestamp;temperature;humidity
5334;DHT22;2689;50.954;7.116;2023-10-08T00:01:43;16.30;99.90
5334;DHT22;2689;50.954;7.116;2023-10-08T00:04:10;16.30;99.90
5334;DHT22;2689;50.954;7.116;2023-10-08T00:06:44;16.40;99.90
5334;DHT22;2689;50.954;7.116;2023-10-08T00:09:12;16.50;99.90
5334;DHT22;2689;50.954;7.116;2023-10-08T00:11:40;16.50;99.90
5334;DHT22;2689;50.954;7.116;2023-10-08T00:14:08;16.60;99.90
5334;DHT22;2689;50.954;7.116;2023-10-08T00:16:36;16.70;99.90
5334;DHT22;2689;50.954;7.116;2023-10-08T00:19:06;16.70;99.90
5334;DHT22;2689;50.954;7.116;2023-10-08T00:21:39;16.80;99.90
5334;DHT22;2689;50.954;7.116;2023-10-08T00:24:10;16.80;99.90
5334;DHT22;2689;50.954;7.116;2023-10-08T00:26:37;16.80;99.90
5334;DHT22;2689;50.954;7.116;2023-10-08T00:29:07;16.80;99.90
5334;DHT22;2689;50.954;7.116;2023-10-08T00:31:41;16.80;99.90
5334;DHT22;2689;50.954;7.116;2023-10-08T00:34:12;16.80;99.90
5334;DHT22;2689;50.954;7.116;2023-10-08T00:36:40;16.70;99.90
5334;DHT22;2689;50.954;7.116;2023-10-08T00:39:08;16.70;99.90
5334;DHT22;2689;50.954;7.116;2023-10-08T00:41:41;16.70;99.90
5334;DHT22;2689;50.954;7.116;2023-10-08T00:44:10;16.60;99.90
5334;DHT22;2689;50.954;7.116;2023-10-08T00:46:41;16.60;99.90
5334;DHT22;2689;50.954;7.116;2023-10-08T00:49:15;16.50;99.90
5334;DHT22;2689;50.954;7.116;2023-10-08T00:52:03;16.40;99.90
5334;DHT22;2689;50.954;7.116;2023-10-08T00:54:51;16.30;99.90
5334;DHT22;2689;50.954;7.116;2023-10-08T00:57:33;16.20;99.90
5334;DHT22;2689;50.954;7.116;2023-10-08T01:00:02;16.10;99.90
5334;DHT22;2689;50.954;7.116;2023-10-08T01:02:32;16.00;99.90
5334;DHT22;2689;50.954;7.116;2023-10-08T01:05:13;16.00;99.90
5334;DHT22;2689;50.954;7.116;2023-10-08T01:07:46;16.00;99.90
5334;DHT22;2689;50.954;7.116;2023-10-08T01:10:14;16.00;99.90
5334;DHT22;2689;50.954;7.116;2023-10-08T01:12:46;16.00;99.90
5334;DHT22;2689;50.954;7.116;2023-10-08T01:15:27;15.90;99.90
5334;DHT22;2689;50.954;7.116;2023-10-08T01:17:55;15.90;99.90
5334;DHT22;2689;50.954;7.116;2023-10-08T01:20:27;15.90;99.90
5334;DHT22;2689;50.954;7.116;2023-10-08T01:23:04;15.90;99.90
5334;DHT22;2689;50.954;7.116;2023-10-08T01:25:35;15.80;99.90
5334;DHT22;2689;50.954;7.116;2023-10-08T01:28:06;15.80;99.90
5334;DHT22;2689;50.954;7.116;2023-10-08T01:30:41;15.70;99.90
5334;DHT22;2689;50.954;7.116;2023-10-08T01:33:08;15.60;99.90
5334;DHT22;2689;50.954;7.116;2023-10-08T01:35:39;15.50;99.90
5334;DHT22;2689;50.954;7.116;2023-10-08T01:38:08;15.50;99.90
5334;DHT22;2689;50.954;7.116;2023-10-08T01:40:40;15.40;99.90
5334;DHT22;2689;50.954;7.116;2023-10-08T01:43:07;15.40;99.90
5334;DHT22;2689;50.954;7.116;2023-10-08T01:45:39;15.40;99.90
5334;DHT22;2689;50.954;7.116;2023-10-08T01:48:08;15.30;99.90
5334;DHT22;2689;50.954;7.116;2023-10-08T01:50:36;15.20;99.90
5334;DHT22;2689;50.954;7.116;2023-10-08T01:53:05;15.20;99.90
5334;DHT22;2689;50.954;7.116;2023-10-08T01:55:37;15.20;99.90
5334;DHT22;2689;50.954;7.116;2023-10-08T01:58:16;15.10;99.90
5334;DHT22;2689;50.954;7.116;2023-10-08T02:00:44;15.10;99.90
5334;DHT22;2689;50.954;7.116;2023-10-08T02:03:12;15.10;99.90
5334;DHT22;2689;50.954;7.116;2023-10-08T02:05:41;15.00;99.90
5334;DHT22;2689;50.954;7.116;2023-10-08T02:08:08;15.00;99.90
5334;DHT22;2689;50.954;7.116;2023-10-08T02:10:37;15.00;99.90
5334;DHT22;2689;50.954;7.116;2023-10-08T02:13:05;14.90;99.90
5334;DHT22;2689;50.954;7.116;2023-10-08T02:15:34;14.80;99.90
5334;DHT22;2689;50.954;7.116;2023-10-08T02:18:01;14.70;99.90
5334;DHT22;2689;50.954;7.116;2023-10-08T02:20:28;14.70;99.90
5334;DHT22;2689;50.954;7.116;2023-10-08T02:22:55;14.60;99.90
5334;DHT22;2689;50.954;7.116;2023-10-08T02:25:22;14.60;99.90
5334;DHT22;2689;50.954;7.116;2023-10-08T02:27:52;14.60;99.90
5334;DHT22;2689;50.954;7.116;2023-10-08T02:30:19;14.60;99.90
5334;DHT22;2689;50.954;7.116;2023-10-08T02:32:46;14.60;99.90
5334;DHT22;2689;50.954;7.116;2023-10-08T02:35:13;14.60;99.90
5334;DHT22;2689;50.954;7.116;2023-10-08T02:37:40;14.60;99.90
5334;DHT22;2689;50.954;7.116;2023-10-08T02:40:07;14.60;99.90
5334;DHT22;2689;50.954;7.116;2023-10-08T02:42:54;14.60;99.90
5334;DHT22;2689;50.954;7.116;2023-10-08T02:45:25;14.60;99.90
5334;DHT22;2689;50.954;7.116;2023-10-08T02:47:52;14.60;99.90
5334;DHT22;2689;50.954;7.116;2023-10-08T02:50:19;14.60;99.90
5334;DHT22;2689;50.954;7.116;2023-10-08T02:52:48;14.50;99.90
5334;DHT22;2689;50.954;7.116;2023-10-08T02:55:15;14.60;99.90
5334;DHT22;2689;50.954;7.116;2023-10-08T02:57:55;14.70;99.90
5334;DHT22;2689;50.954;7.116;2023-10-08T03:00:22;14.70;99.90
5334;DHT22;2689;50.954;7.116;2023-10-08T03:02:56;14.70;99.90
5334;DHT22;2689;50.954;7.116;2023-10-08T03:05:23;14.70;99.90
5334;DHT22;2689;50.954;7.116;2023-10-08T03:07:58;14.70;99.90
5334;DHT22;2689;50.954;7.116;2023-10-08T03:10:26;14.80;99.90
5334;DHT22;2689;50.954;7.116;2023-10-08T03:13:00;14.70;99.90
5334;DHT22;2689;50.954;7.116;2023-10-08T03:15:30;14.80;99.90
5334;DHT22;2689;50.954;7.116;2023-10-08T03:18:05;14.80;99.90
5334;DHT22;2689;50.954;7.116;2023-10-08T03:20:35;14.90;99.90
5334;DHT22;2689;50.954;7.116;2023-10-08T03:23:16;14.90;99.90
5334;DHT22;2689;50.954;7.116;2023-10-08T03:25:59;14.90;99.90
5334;DHT22;2689;50.954;7.116;2023-10-08T03:28:29;15.00;99.90
5334;DHT22;2689;50.954;7.116;2023-10-08T03:31:00;15.00;99.90
5334;DHT22;2689;50.954;7.116;2023-10-08T03:33:31;15.00;99.90
5334;DHT22;2689;50.954;7.116;2023-10-08T03:36:00;15.00;99.90
5334;DHT22;2689;50.954;7.116;2023-10-08T03:38:35;15.00;99.90
5334;DHT22;2689;50.954;7.116;2023-10-08T03:41:16;15.00;99.90
5334;DHT22;2689;50.954;7.116;2023-10-08T03:43:50;15.10;99.90
5334;DHT22;2689;50.954;7.116;2023-10-08T03:46:23;15.00;99.90
5334;DHT22;2689;50.954;7.116;2023-10-08T03:48:51;15.10;99.90
5334;DHT22;2689;50.954;7.116;2023-10-08T03:51:20;15.10;99.90
5334;DHT22;2689;50.954;7.116;2023-10-08T03:53:47;15.10;99.90
5334;DHT22;2689;50.954;7.116;2023-10-08T03:56:41;15.10;99.90
5334;DHT22;2689;50.954;7.116;2023-10-08T03:59:13;15.10;99.90
5334;DHT22;2689;50.954;7.116;2023-10-08T04:01:46;15.10;99.90
5334;DHT22;2689;50.954;7.116;2023-10-08T04:04:14;15.10;99.90
5334;DHT22;2689;50.954;7.116;2023-10-08T04:06:42;15.20;99.90
5334;DHT22;2689;50.954;7.116;2023-10-08T04:09:15;15.20;99.90
5334;DHT22;2689;50.954;7.116;2023-10-08T04:11:50;15.20;99.90
5334;DHT22;2689;50.954;7.116;2023-10-08T04:14:24;15.20;99.90
5334;DHT22;2689;50.954;7.116;2023-10-08T04:16:51;15.20;99.90
5334;DHT22;2689;50.954;7.116;2023-10-08T04:19:19;15.10;99.90
5334;DHT22;2689;50.954;7.116;2023-10-08T04:21:47;15.10;99.90
5334;DHT22;2689;50.954;7.116;2023-10-08T04:24:20;15.10;99.90
5334;DHT22;2689;50.954;7.116;2023-10-08T04:26:56;15.10;99.90
5334;DHT22;2689;50.954;7.116;2023-10-08T04:29:25;15.10;99.90
5334;DHT22;2689;50.954;7.116;2023-10-08T04:31:57;15.10;99.90
5334;DHT22;2689;50.954;7.116;2023-10-08T04:34:33;15.00;99.90
5334;DHT22;2689;50.954;7.116;2023-10-08T04:37:00;15.10;99.90
5334;DHT22;2689;50.954;7.116;2023-10-08T04:39:29;15.10;99.90
5334;DHT22;2689;50.954;7.116;2023-10-08T04:42:00;15.10;99.90
5334;DHT22;2689;50.954;7.116;2023-10-08T04:44:33;15.00;99.90
5334;DHT22;2689;50.954;7.116;2023-10-08T04:47:00;14.90;99.90
5334;DHT22;2689;50.954;7.116;2023-10-08T04:49:32;14.90;99.90
5334;DHT22;2689;50.954;7.116;2023-10-08T04:52:01;15.00;99.90
5334;DHT22;2689;50.954;7.116;2023-10-08T04:54:34;15.00;99.90
5334;DHT22;2689;50.954;7.116;2023-10-08T04:57:06;15.00;99.90
5334;DHT22;2689;50.954;7.116;2023-10-08T04:59:34;15.00;99.90
5334;DHT22;2689;50.954;7.116;2023-10-08T05:02:02;15.00;99.90
5334;DHT22;2689;50.954;7.116;2023-10-08T05:04:45;15.00;99.90
5334;DHT22;2689;50.954;7.116;2023-10-08T05:07:22;15.00;99.90
5334;DHT22;2689;50.954;7.116;2023-10-08T05:10:03;15.00;99.90
5334;DHT22;2689;50.954;7.116;2023-10-08T05:12:47;15.00;99.90
5334;DHT22;2689;50.954;7.116;2023-10-08T05:15:27;14.90;99.90
5334;DHT22;2689;50.954;7.116;2023-10-08T05:18:04;14.90;99.90
5334;DHT22;2689;50.954;7.116;2023-10-08T05:20:45;14.80;99.90
5334;DHT22;2689;50.954;7.116;2023-10-08T05:23:25;14.90;99.90
5334;DHT22;2689;50.954;7.116;2023-10-08T05:26:10;14.90;99.90
5334;DHT22;2689;50.954;7.116;2023-10-08T05:28:46;14.90;99.90
5334;DHT22;2689;50.954;7.116;2023-10-08T05:31:28;14.80;99.90
5334;DHT22;2689;50.954;7.116;2023-10-08T05:34:13;14.80;99.90
5334;DHT22;2689;50.954;7.116;2023-10-08T05:36:58;14.80;99.90
5334;DHT22;2689;50.954;7.116;2023-10-08T05:39:57;14.80;99.90
5334;DHT22;2689;50.954;7.116;2023-10-08T05:42:37;14.70;99.90
5334;DHT22;2689;50.954;7.116;2023-10-08T05:45:12;14.60;99.90
5334;DHT22;2689;50.954;7.116;2023-10-08T05:47:41;14.70;99.90
5334;DHT22;2689;50.954;7.116;2023-10-08T05:50:28;14.70;99.90
5334;DHT22;2689;50.954;7.116;2023-10-08T05:53:04;14.70;99.90
5334;DHT22;2689;50.954;7.116;2023-10-08T05:55:45;14.70;99.90
5334;DHT22;2689;50.954;7.116;2023-10-08T05:58:13;14.60;99.90
5334;DHT22;2689;50.954;7.116;2023-10-08T06:00:50;14.70;99.90
5334;DHT22;2689;50.954;7.116;2023-10-08T06:03:35;14.70;99.90
5334;DHT22;2689;50.954;7.116;2023-10-08T06:06:06;14.70;99.90
5334;DHT22;2689;50.954;7.116;2023-10-08T06:09:04;14.80;99.90
5334;DHT22;2689;50.954;7.116;2023-10-08T06:11:48;14.80;99.90
5334;DHT22;2689;50.954;7.116;2023-10-08T06:14:35;14.90;99.90
5334;DHT22;2689;50.954;7.116;2023-10-08T06:17:32;14.90;99.90
5334;DHT22;2689;50.954;7.116;2023-10-08T06:20:24;15.00;99.90
5334;DHT22;2689;50.954;7.116;2023-10-08T06:22:53;15.10;99.90
5334;DHT22;2689;50.954;7.116;2023-10-08T06:25:26;15.10;99.90
5334;DHT22;2689;50.954;7.116;2023-10-08T06:27:53;15.10;99.90
5334;DHT22;2689;50.954;7.116;2023-10-08T06:30:21;15.20;99.90
5334;DHT22;2689;50.954;7.116;2023-10-08T06:32:49;15.30;99.90
5334;DHT22;2689;50.954;7.116;2023-10-08T06:35:19;15.30;99.90
5334;DHT22;2689;50.954;7.116;2023-10-08T06:37:53;15.40;99.90
5334;DHT22;2689;50.954;7.116;2023-10-08T06:40:24;15.50;99.90
5334;DHT22;2689;50.954;7.116;2023-10-08T06:43:06;15.50;99.90
5334;DHT22;2689;50.954;7.116;2023-10-08T06:45:40;15.60;99.90
5334;DHT22;2689;50.954;7.116;2023-10-08T06:48:07;15.70;99.90
5334;DHT22;2689;50.954;7.116;2023-10-08T06:50:35;15.80;99.90
5334;DHT22;2689;50.954;7.116;2023-10-08T06:53:04;15.90;99.90
5334;DHT22;2689;50.954;7.116;2023-10-08T06:55:34;15.90;99.90
5334;DHT22;2689;50.954;7.116;2023-10-08T06:58:02;15.90;99.90
5334;DHT22;2689;50.954;7.116;2023-10-08T07:00:31;16.00;99.90
5334;DHT22;2689;50.954;7.116;2023-10-08T07:03:12;16.10;99.90
5334;DHT22;2689;50.954;7.116;2023-10-08T07:05:40;16.20;99.90
5334;DHT22;2689;50.954;7.116;2023-10-08T07:08:11;16.20;99.90
5334;DHT22;2689;50.954;7.116;2023-10-08T07:10:40;16.30;99.90
5334;DHT22;2689;50.954;7.116;2023-10-08T07:13:12;16.30;99.90
5334;DHT22;2689;50.954;7.116;2023-10-08T07:15:43;16.40;99.90
5334;DHT22;2689;50.954;7.116;2023-10-08T07:18:12;16.40;99.90
5334;DHT22;2689;50.954;7.116;2023-10-08T07:20:45;16.40;99.90
5334;DHT22;2689;50.954;7.116;2023-10-08T07:23:20;16.60;99.90
5334;DHT22;2689;50.954;7.116;2023-10-08T07:25:53;16.60;99.90
5334;DHT22;2689;50.954;7.116;2023-10-08T07:28:24;16.70;99.90
5334;DHT22;2689;50.954;7.116;2023-10-08T07:30:52;16.80;99.90
5334;DHT22;2689;50.954;7.116;2023-10-08T07:33:18;16.80;99.90
5334;DHT22;2689;50.954;7.116;2023-10-08T07:35:46;16.90;99.90
5334;DHT22;2689;50.954;7.116;2023-10-08T07:38:25;17.00;99.90
5334;DHT22;2689;50.954;7.116;2023-10-08T07:40:57;17.10;99.90
5334;DHT22;2689;50.954;7.116;2023-10-08T07:43:28;17.20;99.90
5334;DHT22;2689;50.954;7.116;2023-10-08T07:45:57;17.20;99.90
5334;DHT22;2689;50.954;7.116;2023-10-08T07:48:25;17.30;99.90
5334;DHT22;2689;50.954;7.116;2023-10-08T07:50:57;17.40;99.90
5334;DHT22;2689;50.954;7.116;2023-10-08T07:53:25;17.50;99.90
5334;DHT22;2689;50.954;7.116;2023-10-08T07:56:04;17.50;99.90
5334;DHT22;2689;50.954;7.116;2023-10-08T07:58:37;17.60;99.90
5334;DHT22;2689;50.954;7.116;2023-10-08T08:01:06;17.60;99.90
5334;DHT22;2689;50.954;7.116;2023-10-08T08:03:35;17.60;99.90
5334;DHT22;2689;50.954;7.116;2023-10-08T08:06:03;17.70;99.90
5334;DHT22;2689;50.954;7.116;2023-10-08T08:08:36;17.80;99.90
5334;DHT22;2689;50.954;7.116;2023-10-08T08:11:03;17.90;99.90
5334;DHT22;2689;50.954;7.116;2023-10-08T08:13:33;18.00;99.90
5334;DHT22;2689;50.954;7.116;2023-10-08T08:16:00;18.00;99.90
5334;DHT22;2689;50.954;7.116;2023-10-08T08:18:37;17.90;99.90
5334;DHT22;2689;50.954;7.116;2023-10-08T08:21:08;17.90;99.90
5334;DHT22;2689;50.954;7.116;2023-10-08T08:23:42;17.90;99.90
5334;DHT22;2689;50.954;7.116;2023-10-08T08:26:14;18.00;99.90
5334;DHT22;2689;50.954;7.116;2023-10-08T08:28:53;18.10;99.90
5334;DHT22;2689;50.954;7.116;2023-10-08T08:31:20;18.20;99.90
5334;DHT22;2689;50.954;7.116;2023-10-08T08:33:48;18.20;99.90
5334;DHT22;2689;50.954;7.116;2023-10-08T08:36:26;18.20;99.90
5334;DHT22;2689;50.954;7.116;2023-10-08T08:38:55;18.20;99.90
5334;DHT22;2689;50.954;7.116;2023-10-08T08:41:22;18.20;99.90
5334;DHT22;2689;50.954;7.116;2023-10-08T08:43:50;18.30;99.90
5334;DHT22;2689;50.954;7.116;2023-10-08T08:46:27;18.50;99.90
5334;DHT22;2689;50.954;7.116;2023-10-08T08:48:55;18.50;99.90
5334;DHT22;2689;50.954;7.116;2023-10-08T08:51:27;18.50;99.90
5334;DHT22;2689;50.954;7.116;2023-10-08T08:53:56;18.50;99.60
5334;DHT22;2689;50.954;7.116;2023-10-08T08:56:26;18.60;99.50
5334;DHT22;2689;50.954;7.116;2023-10-08T08:58:54;18.60;99.40
5334;DHT22;2689;50.954;7.116;2023-10-08T09:01:22;18.60;99.10
5334;DHT22;2689;50.954;7.116;2023-10-08T09:03:48;18.70;99.40
5334;DHT22;2689;50.954;7.116;2023-10-08T09:06:15;18.70;98.80
5334;DHT22;2689;50.954;7.116;2023-10-08T09:08:42;18.70;98.90
5334;DHT22;2689;50.954;7.116;2023-10-08T09:11:15;18.70;98.70
5334;DHT22;2689;50.954;7.116;2023-10-08T09:13:42;18.70;99.10
5334;DHT22;2689;50.954;7.116;2023-10-08T09:16:12;18.80;99.20
5334;DHT22;2689;50.954;7.116;2023-10-08T09:18:42;18.90;99.00
5334;DHT22;2689;50.954;7.116;2023-10-08T09:21:14;19.00;98.40
5334;DHT22;2689;50.954;7.116;2023-10-08T09:23:49;19.10;99.40
5334;DHT22;2689;50.954;7.116;2023-10-08T09:26:18;19.30;98.50
5334;DHT22;2689;50.954;7.116;2023-10-08T09:28:45;19.30;97.70
5334;DHT22;2689;50.954;7.116;2023-10-08T09:31:14;19.30;97.40
5334;DHT22;2689;50.954;7.116;2023-10-08T09:33:43;19.30;97.70
5334;DHT22;2689;50.954;7.116;2023-10-08T09:36:10;19.30;98.40
5334;DHT22;2689;50.954;7.116;2023-10-08T09:38:45;19.40;98.50
5334;DHT22;2689;50.954;7.116;2023-10-08T09:41:14;19.50;98.40
5334;DHT22;2689;50.954;7.116;2023-10-08T09:43:42;19.60;97.60
5334;DHT22;2689;50.954;7.116;2023-10-08T09:46:15;19.70;97.60
5334;DHT22;2689;50.954;7.116;2023-10-08T09:48:49;19.70;97.40
5334;DHT22;2689;50.954;7.116;2023-10-08T09:51:18;19.90;97.90
5334;DHT22;2689;50.954;7.116;2023-10-08T09:53:52;20.10;97.30
5334;DHT22;2689;50.954;7.116;2023-10-08T09:56:20;20.20;96.80
5334;DHT22;2689;50.954;7.116;2023-10-08T09:58:49;20.40;96.60
5334;DHT22;2689;50.954;7.116;2023-10-08T10:01:17;20.50;95.90
5334;DHT22;2689;50.954;7.116;2023-10-08T10:03:45;20.70;95.90
5334;DHT22;2689;50.954;7.116;2023-10-08T10:06:13;20.60;94.90
5334;DHT22;2689;50.954;7.116;2023-10-08T10:08:42;20.50;95.00
5334;DHT22;2689;50.954;7.116;2023-10-08T10:11:10;20.40;94.90
5334;DHT22;2689;50.954;7.116;2023-10-08T10:13:42;20.40;95.00
5334;DHT22;2689;50.954;7.116;2023-10-08T10:16:17;20.40;95.00
5334;DHT22;2689;50.954;7.116;2023-10-08T10:18:49;20.30;95.10
5334;DHT22;2689;50.954;7.116;2023-10-08T10:21:27;20.30;94.90
5334;DHT22;2689;50.954;7.116;2023-10-08T10:23:55;20.30;95.30
5334;DHT22;2689;50.954;7.116;2023-10-08T10:26:25;20.30;95.30
5334;DHT22;2689;50.954;7.116;2023-10-08T10:29:19;20.30;95.70
5334;DHT22;2689;50.954;7.116;2023-10-08T10:31:54;20.40;95.20
5334;DHT22;2689;50.954;7.116;2023-10-08T10:34:23;20.40;94.90
5334;DHT22;2689;50.954;7.116;2023-10-08T10:36:53;20.30;94.70
5334;DHT22;2689;50.954;7.116;2023-10-08T10:39:24;20.20;95.00
5334;DHT22;2689;50.954;7.116;2023-10-08T10:41:56;20.10;95.20
5334;DHT22;2689;50.954;7.116;2023-10-08T10:44:27;20.20;95.60
5334;DHT22;2689;50.954;7.116;2023-10-08T10:46:57;20.30;95.50
5334;DHT22;2689;50.954;7.116;2023-10-08T10:49:42;20.40;94.90
5334;DHT22;2689;50.954;7.116;2023-10-08T10:52:20;20.50;95.00
5334;DHT22;2689;50.954;7.116;2023-10-08T10:54:59;20.50;95.00
5334;DHT22;2689;50.954;7.116;2023-10-08T10:57:30;20.70;95.30
5334;DHT22;2689;50.954;7.116;2023-10-08T11:00:05;20.70;95.00
5334;DHT22;2689;50.954;7.116;2023-10-08T11:02:58;20.80;95.40
5334;DHT22;2689;50.954;7.116;2023-10-08T11:05:28;20.90;94.70
5334;DHT22;2689;50.954;7.116;2023-10-08T11:07:55;21.20;94.30
5334;DHT22;2689;50.954;7.116;2023-10-08T11:10:26;21.20;93.90
5334;DHT22;2689;50.954;7.116;2023-10-08T11:12:54;21.50;93.50
5334;DHT22;2689;50.954;7.116;2023-10-08T11:15:25;21.40;93.60
5334;DHT22;2689;50.954;7.116;2023-10-08T11:18:07;21.60;94.20
5334;DHT22;2689;50.954;7.116;2023-10-08T11:20:34;21.70;93.10
5334;DHT22;2689;50.954;7.116;2023-10-08T11:23:05;21.70;93.00
5334;DHT22;2689;50.954;7.116;2023-10-08T11:25:52;21.70;92.80
5334;DHT22;2689;50.954;7.116;2023-10-08T11:28:19;21.80;93.30
5334;DHT22;2689;50.954;7.116;2023-10-08T11:30:48;21.90;93.30
5334;DHT22;2689;50.954;7.116;2023-10-08T11:33:18;22.00;92.80
5334;DHT22;2689;50.954;7.116;2023-10-08T11:35:58;22.00;92.20
5334;DHT22;2689;50.954;7.116;2023-10-08T11:38:26;21.90;92.10
5334;DHT22;2689;50.954;7.116;2023-10-08T11:41:39;21.80;92.60
5334;DHT22;2689;50.954;7.116;2023-10-08T11:44:16;22.20;92.60
5334;DHT22;2689;50.954;7.116;2023-10-08T11:46:45;22.70;92.00
5334;DHT22;2689;50.954;7.116;2023-10-08T11:49:18;22.90;91.00
5334;DHT22;2689;50.954;7.116;2023-10-08T11:51:50;23.20;91.10
5334;DHT22;2689;50.954;7.116;2023-10-08T11:54:18;23.40;90.20
5334;DHT22;2689;50.954;7.116;2023-10-08T11:56:45;23.80;90.80
5334;DHT22;2689;50.954;7.116;2023-10-08T11:59:12;24.80;88.10
5334;DHT22;2689;50.954;7.116;2023-10-08T12:01:39;25.40;84.20
5334;DHT22;2689;50.954;7.116;2023-10-08T12:04:08;26.00;83.00
5334;DHT22;2689;50.954;7.116;2023-10-08T12:06:41;26.20;79.50
5334;DHT22;2689;50.954;7.116;2023-10-08T12:09:12;25.90;79.50
5334;DHT22;2689;50.954;7.116;2023-10-08T12:11:40;25.50;80.80
5334;DHT22;2689;50.954;7.116;2023-10-08T12:14:08;25.30;82.90
5334;DHT22;2689;50.954;7.116;2023-10-08T12:16:36;25.10;83.00
5334;DHT22;2689;50.954;7.116;2023-10-08T12:19:05;25.00;84.40
5334;DHT22;2689;50.954;7.116;2023-10-08T12:21:43;24.70;83.50
5334;DHT22;2689;50.954;7.116;2023-10-08T12:24:11;24.30;84.10
5334;DHT22;2689;50.954;7.116;2023-10-08T12:26:38;23.80;85.30
5334;DHT22;2689;50.954;7.116;2023-10-08T12:29:11;23.40;86.80
5334;DHT22;2689;50.954;7.116;2023-10-08T12:31:39;23.20;88.60
5334;DHT22;2689;50.954;7.116;2023-10-08T12:34:06;23.00;88.90
5334;DHT22;2689;50.954;7.116;2023-10-08T12:36:37;22.90;89.70
5334;DHT22;2689;50.954;7.116;2023-10-08T12:39:05;22.60;89.60
5334;DHT22;2689;50.954;7.116;2023-10-08T12:41:40;22.40;90.30
5334;DHT22;2689;50.954;7.116;2023-10-08T12:44:09;22.30;90.90
5334;DHT22;2689;50.954;7.116;2023-10-08T12:46:36;22.10;91.30
5334;DHT22;2689;50.954;7.116;2023-10-08T12:49:03;22.10;91.20
5334;DHT22;2689;50.954;7.116;2023-10-08T12:51:30;22.00;91.50
5334;DHT22;2689;50.954;7.116;2023-10-08T12:53:59;21.90;92.00
5334;DHT22;2689;50.954;7.116;2023-10-08T12:56:34;21.80;92.10
5334;DHT22;2689;50.954;7.116;2023-10-08T12:59:05;21.60;92.30
5334;DHT22;2689;50.954;7.116;2023-10-08T13:01:33;21.60;92.60
5334;DHT22;2689;50.954;7.116;2023-10-08T13:04:02;21.70;92.90
5334;DHT22;2689;50.954;7.116;2023-10-08T13:06:33;21.70;92.90
5334;DHT22;2689;50.954;7.116;2023-10-08T13:09:03;21.80;93.10
5334;DHT22;2689;50.954;7.116;2023-10-08T13:11:41;21.80;92.50
5334;DHT22;2689;50.954;7.116;2023-10-08T13:14:11;21.80;92.30
5334;DHT22;2689;50.954;7.116;2023-10-08T13:16:38;21.70;92.40
5334;DHT22;2689;50.954;7.116;2023-10-08T13:19:05;21.60;92.90
5334;DHT22;2689;50.954;7.116;2023-10-08T13:21:34;21.50;93.50
5334;DHT22;2689;50.954;7.116;2023-10-08T13:24:03;21.50;93.50
5334;DHT22;2689;50.954;7.116;2023-10-08T13:26:34;21.50;93.60
5334;DHT22;2689;50.954;7.116;2023-10-08T13:29:04;21.50;93.40
5334;DHT22;2689;50.954;7.116;2023-10-08T13:31:32;21.40;93.50
5334;DHT22;2689;50.954;7.116;2023-10-08T13:34:02;21.40;93.90
5334;DHT22;2689;50.954;7.116;2023-10-08T13:36:33;21.40;94.60
5334;DHT22;2689;50.954;7.116;2023-10-08T13:39:00;21.40;94.30
5334;DHT22;2689;50.954;7.116;2023-10-08T13:41:27;21.50;93.80
5334;DHT22;2689;50.954;7.116;2023-10-08T13:43:54;21.70;93.80
5334;DHT22;2689;50.954;7.116;2023-10-08T13:46:32;21.80;93.40
5334;DHT22;2689;50.954;7.116;2023-10-08T13:49:01;21.90;93.50
5334;DHT22;2689;50.954;7.116;2023-10-08T13:51:31;21.90;93.80
5334;DHT22;2689;50.954;7.116;2023-10-08T13:54:00;22.00;93.30
5334;DHT22;2689;50.954;7.116;2023-10-08T13:56:32;22.10;94.00
5334;DHT22;2689;50.954;7.116;2023-10-08T13:59:00;22.50;93.70
5334;DHT22;2689;50.954;7.116;2023-10-08T14:01:39;22.80;93.50
5334;DHT22;2689;50.954;7.116;2023-10-08T14:04:09;22.90;91.50
5334;DHT22;2689;50.954;7.116;2023-10-08T14:06:37;23.00;91.70
5334;DHT22;2689;50.954;7.116;2023-10-08T14:09:08;23.00;92.00
5334;DHT22;2689;50.954;7.116;2023-10-08T14:11:38;23.10;91.70
5334;DHT22;2689;50.954;7.116;2023-10-08T14:14:04;23.20;90.70
5334;DHT22;2689;50.954;7.116;2023-10-08T14:16:38;23.20;90.30
5334;DHT22;2689;50.954;7.116;2023-10-08T14:19:07;23.10;90.50
5334;DHT22;2689;50.954;7.116;2023-10-08T14:21:35;22.90;91.50
5334;DHT22;2689;50.954;7.116;2023-10-08T14:24:14;22.90;91.30
5334;DHT22;2689;50.954;7.116;2023-10-08T14:26:44;23.20;90.80
5334;DHT22;2689;50.954;7.116;2023-10-08T14:29:17;23.40;90.40
5334;DHT22;2689;50.954;7.116;2023-10-08T14:31:45;23.70;90.40
5334;DHT22;2689;50.954;7.116;2023-10-08T14:34:14;23.80;88.70
5334;DHT22;2689;50.954;7.116;2023-10-08T14:37:07;23.70;88.60
5334;DHT22;2689;50.954;7.116;2023-10-08T14:39:51;23.40;90.10
5334;DHT22;2689;50.954;7.116;2023-10-08T14:42:36;23.10;90.50
5334;DHT22;2689;50.954;7.116;2023-10-08T14:45:22;22.90;91.10
5334;DHT22;2689;50.954;7.116;2023-10-08T14:47:53;22.80;91.60
5334;DHT22;2689;50.954;7.116;2023-10-08T14:50:22;22.60;91.70
5334;DHT22;2689;50.954;7.116;2023-10-08T14:52:53;22.40;92.00
5334;DHT22;2689;50.954;7.116;2023-10-08T14:55:20;22.20;92.50
5334;DHT22;2689;50.954;7.116;2023-10-08T14:57:49;22.00;93.10
5334;DHT22;2689;50.954;7.116;2023-10-08T15:00:18;21.80;93.20
5334;DHT22;2689;50.954;7.116;2023-10-08T15:02:52;21.60;93.60
5334;DHT22;2689;50.954;7.116;2023-10-08T15:05:20;21.40;93.80
5334;DHT22;2689;50.954;7.116;2023-10-08T15:07:48;21.20;94.10
5334;DHT22;2689;50.954;7.116;2023-10-08T15:10:15;21.10;94.40
5334;DHT22;2689;50.954;7.116;2023-10-08T15:12:43;21.00;94.80
5334;DHT22;2689;50.954;7.116;2023-10-08T15:15:10;20.90;94.70
5334;DHT22;2689;50.954;7.116;2023-10-08T15:17:39;20.80;95.10
5334;DHT22;2689;50.954;7.116;2023-10-08T15:20:09;20.80;95.80
5334;DHT22;2689;50.954;7.116;2023-10-08T15:22:42;20.80;95.90
5334;DHT22;2689;50.954;7.116;2023-10-08T15:25:09;20.80;96.30
5334;DHT22;2689;50.954;7.116;2023-10-08T15:27:39;20.90;97.10
5334;DHT22;2689;50.954;7.116;2023-10-08T15:30:07;20.90;97.40
5334;DHT22;2689;50.954;7.116;2023-10-08T15:32:37;20.80;98.20
5334;DHT22;2689;50.954;7.116;2023-10-08T15:35:05;20.60;98.30
5334;DHT22;2689;50.954;7.116;2023-10-08T15:37:35;20.70;98.60
5334;DHT22;2689;50.954;7.116;2023-10-08T15:40:04;20.80;98.70
5334;DHT22;2689;50.954;7.116;2023-10-08T15:42:32;20.80;98.80
5334;DHT22;2689;50.954;7.116;2023-10-08T15:44:59;20.80;98.70
5334;DHT22;2689;50.954;7.116;2023-10-08T15:47:27;20.80;98.50
5334;DHT22;2689;50.954;7.116;2023-10-08T15:49:53;20.70;98.50
5334;DHT22;2689;50.954;7.116;2023-10-08T15:52:20;20.60;98.70
5334;DHT22;2689;50.954;7.116;2023-10-08T15:54:51;20.40;99.50
5334;DHT22;2689;50.954;7.116;2023-10-08T15:57:18;20.30;99.90
5334;DHT22;2689;50.954;7.116;2023-10-08T15:59:45;20.30;99.90
5334;DHT22;2689;50.954;7.116;2023-10-08T16:02:12;20.20;99.90
5334;DHT22;2689;50.954;7.116;2023-10-08T16:04:39;20.20;99.90
5334;DHT22;2689;50.954;7.116;2023-10-08T16:07:07;20.20;99.90
5334;DHT22;2689;50.954;7.116;2023-10-08T16:09:36;20.20;99.90
5334;DHT22;2689;50.954;7.116;2023-10-08T16:12:06;20.20;99.90
5334;DHT22;2689;50.954;7.116;2023-10-08T16:14:35;20.20;99.90
5334;DHT22;2689;50.954;7.116;2023-10-08T16:17:02;20.10;99.90
5334;DHT22;2689;50.954;7.116;2023-10-08T16:19:33;20.10;99.90
5334;DHT22;2689;50.954;7.116;2023-10-08T16:22:02;20.00;99.90
5334;DHT22;2689;50.954;7.116;2023-10-08T16:24:29;20.00;99.90
5334;DHT22;2689;50.954;7.116;2023-10-08T16:26:56;19.90;99.90
5334;DHT22;2689;50.954;7.116;2023-10-08T16:29:24;19.80;99.90
5334;DHT22;2689;50.954;7.116;2023-10-08T16:31:51;19.80;99.90